Time;durP1;ratioP1;P1;durP2;ratioP2;P2;SDS_P1;SDS_P2;PMS_P1;PMS_P2;Temp;Humidity;BMP_temperature;BMP_pressure;BME280_temperature;BME280_humidity;BME280_pressure;Samples;Min_cycle;Max_cycle;Signal;HPM_P1;HPM_P2
2022/11/17 00:01:57;;;;;;;9.80;6.38;;;9.60;99.90;;;;;;6231928;23;20004;-79
2022/11/17 00:04:29;;;;;;;11.48;7.32;;;9.60;99.90;;;;;;6257594;23;20086;-80
2022/11/17 00:06:56;;;;;;;11.00;6.30;;;9.50;99.90;;;;;;6258731;23;20008;-80
2022/11/17 00:09:22;;;;;;;10.07;6.43;;;9.50;99.90;;;;;;6260018;23;20000;-79
2022/11/17 00:14:39;;;;;;;10.20;7.07;;;9.60;99.90;;;;;;6246620;23;20062;-80
2022/11/17 00:17:10;;;;;;;12.68;6.70;;;9.60;99.90;;;;;;6246239;23;20008;-78
2022/11/17 00:22:21;;;;;;;10.05;6.72;;;9.60;99.90;;;;;;6266546;23;20007;-77
2022/11/17 00:24:47;;;;;;;11.20;7.00;;;9.60;99.90;;;;;;6270796;23;20011;-78
2022/11/17 00:27:14;;;;;;;9.63;6.85;;;9.60;99.90;;;;;;6264364;23;20014;-80
2022/11/17 00:29:39;;;;;;;10.40;6.70;;;9.50;99.90;;;;;;6248374;23;20049;-81
2022/11/17 00:34:54;;;;;;;10.85;7.05;;;9.50;99.90;;;;;;6247100;23;20020;-80
2022/11/17 00:37:20;;;;;;;10.57;7.40;;;9.50;99.90;;;;;;6246315;23;20019;-80
2022/11/17 00:39:46;;;;;;;10.23;6.90;;;9.50;99.90;;;;;;6245274;23;20008;-80
2022/11/17 00:42:12;;;;;;;10.57;6.80;;;9.50;99.90;;;;;;6248168;23;20483;-82
2022/11/17 00:44:37;;;;;;;10.90;7.43;;;9.50;99.90;;;;;;6250507;23;20052;-80
2022/11/17 00:47:03;;;;;;;9.75;7.28;;;9.50;99.90;;;;;;6255048;23;20004;-80
2022/11/17 00:49:29;;;;;;;10.68;7.35;;;9.50;99.90;;;;;;6234060;23;20008;-80
2022/11/17 00:51:55;;;;;;;11.63;7.60;;;9.50;99.90;;;;;;6234125;23;20304;-79
2022/11/17 00:54:21;;;;;;;13.25;8.40;;;9.50;99.90;;;;;;6261597;23;20011;-80
2022/11/17 00:56:47;;;;;;;12.48;7.65;;;9.50;99.90;;;;;;6261846;23;20007;-80
2022/11/17 00:59:13;;;;;;;9.57;6.85;;;9.40;99.90;;;;;;6262761;23;20004;-81
2022/11/17 01:01:40;;;;;;;11.63;7.95;;;9.40;99.90;;;;;;6235517;23;20039;-80
2022/11/17 01:04:06;;;;;;;13.13;8.50;;;9.50;99.90;;;;;;6259804;23;20015;-79
2022/11/17 01:06:38;;;;;;;15.20;8.60;;;9.40;99.90;;;;;;6257228;23;20012;-81
2022/11/17 01:09:12;;;;;;;12.13;8.73;;;9.40;99.90;;;;;;6203305;23;20008;-80
2022/11/17 01:11:38;;;;;;;11.95;8.00;;;9.40;99.90;;;;;;6255475;23;20055;-81
2022/11/17 01:14:04;;;;;;;12.70;8.43;;;9.40;99.90;;;;;;6231144;23;20001;-78
2022/11/17 01:16:31;;;;;;;14.05;9.32;;;9.40;99.90;;;;;;6256950;23;20015;-80
2022/11/17 01:19:00;;;;;;;14.20;8.95;;;9.40;99.90;;;;;;6256867;23;20095;-80
2022/11/17 01:21:27;;;;;;;11.85;8.43;;;9.40;99.90;;;;;;6257647;23;20008;-81
2022/11/17 01:23:54;;;;;;;14.40;9.45;;;9.40;99.90;;;;;;6263880;23;20031;-79
2022/11/17 01:26:28;;;;;;;13.18;9.30;;;9.30;99.90;;;;;;6256177;23;20016;-79
2022/11/17 01:28:54;;;;;;;14.80;9.20;;;9.30;99.90;;;;;;6255051;23;20001;-81
2022/11/17 01:31:22;;;;;;;14.55;8.90;;;9.20;99.90;;;;;;6255389;23;20049;-81
2022/11/17 01:33:48;;;;;;;13.23;9.00;;;9.20;99.90;;;;;;6230540;23;19996;-79
2022/11/17 01:36:17;;;;;;;13.05;8.65;;;9.10;99.90;;;;;;6258671;23;20004;-78
2022/11/17 01:38:43;;;;;;;13.88;9.25;;;9.10;99.90;;;;;;6258077;23;20009;-80
2022/11/17 01:41:19;;;;;;;14.30;9.73;;;9.00;99.90;;;;;;6257345;23;20497;-80
2022/11/17 01:43:48;;;;;;;13.25;9.10;;;9.00;99.90;;;;;;6258439;23;20008;-80
2022/11/17 01:46:35;;;;;;;15.02;9.70;;;8.90;99.90;;;;;;6257944;23;20011;-81
2022/11/17 01:49:12;;;;;;;12.88;9.13;;;8.90;99.90;;;;;;6257761;23;20008;-80
2022/11/17 01:51:44;;;;;;;13.90;9.25;;;8.90;99.90;;;;;;6257165;23;20379;-81
2022/11/17 01:54:12;;;;;;;14.93;9.95;;;8.80;99.90;;;;;;6259194;23;20001;-79
2022/11/17 01:56:43;;;;;;;16.52;10.30;;;8.80;99.90;;;;;;6230996;23;20035;-79
2022/11/17 01:59:21;;;;;;;15.80;10.55;;;8.70;99.90;;;;;;6231758;23;20068;-79
2022/11/17 02:01:57;;;;;;;15.48;10.07;;;8.70;99.90;;;;;;6267922;23;20027;-79
2022/11/17 02:04:29;;;;;;;14.05;9.90;;;8.70;99.90;;;;;;6272156;23;20008;-80
2022/11/17 02:07:12;;;;;;;15.55;10.23;;;8.70;99.90;;;;;;6270638;23;20023;-80
2022/11/17 02:09:39;;;;;;;16.75;10.50;;;8.70;99.90;;;;;;6264114;23;20087;-79
2022/11/17 02:12:09;;;;;;;14.80;10.38;;;8.70;99.90;;;;;;6258975;23;19996;-80
2022/11/17 02:14:35;;;;;;;16.45;10.68;;;8.60;99.90;;;;;;6266164;23;20011;-80
2022/11/17 02:17:02;;;;;;;15.88;9.43;;;8.60;99.90;;;;;;6213571;23;20088;-79
2022/11/17 02:19:33;;;;;;;16.77;10.55;;;8.60;99.90;;;;;;6245168;23;20015;-78
2022/11/17 02:22:47;;;;;;;14.30;10.13;;;8.50;99.90;;;;;;6246606;23;20012;-79
2022/11/17 02:25:42;;;;;;;16.95;10.93;;;8.50;99.90;;;;;;6151191;23;20004;-80
2022/11/17 02:28:11;;;;;;;;;;;8.40;99.90;;;;;;6259215;23;20012;-78
2022/11/17 02:31:03;;;;;;;17.83;11.07;;;8.40;99.90;;;;;;6256802;23;19914;-80
2022/11/17 02:33:35;;;;;;;19.67;11.98;;;8.30;99.90;;;;;;6257697;23;20028;-78
2022/11/17 02:36:11;;;;;;;19.20;11.93;;;8.30;99.90;;;;;;6230316;23;20015;-79
2022/11/17 02:39:06;;;;;;;19.90;12.45;;;8.20;99.90;;;;;;6257026;23;20015;-81
2022/11/17 02:41:47;;;;;;;18.60;11.85;;;8.20;99.90;;;;;;6259407;23;20012;-80
2022/11/17 02:44:23;;;;;;;19.02;12.73;;;8.20;99.90;;;;;;6233896;23;20012;-79
2022/11/17 02:47:05;;;;;;;19.52;12.48;;;8.10;99.90;;;;;;6226868;23;20008;-80
2022/11/17 02:49:37;;;;;;;19.20;12.02;;;8.10;99.90;;;;;;6253728;23;20004;-80
2022/11/17 02:52:05;;;;;;;17.85;11.95;;;8.10;99.90;;;;;;6233257;23;20008;-79
2022/11/17 02:54:32;;;;;;;21.10;12.90;;;8.20;99.90;;;;;;6261994;23;20320;-80
2022/11/17 02:56:58;;;;;;;23.48;12.52;;;8.20;99.90;;;;;;6230660;23;20027;-79
2022/11/17 02:59:40;;;;;;;18.23;11.38;;;8.20;99.90;;;;;;6232613;23;19996;-81
2022/11/17 03:02:25;;;;;;;18.73;10.73;;;8.30;99.90;;;;;;6257774;23;20019;-80
2022/11/17 03:05:35;;;;;;;19.92;11.73;;;8.30;99.90;;;;;;6255848;23;20018;-80
2022/11/17 03:08:10;;;;;;;18.17;11.20;;;8.40;99.90;;;;;;6105438;23;20180;-80
2022/11/17 03:10:59;;;;;;;20.20;11.18;;;8.40;99.90;;;;;;6111198;23;20014;-80
2022/11/17 03:13:45;;;;;;;18.65;11.43;;;8.40;99.90;;;;;;6191455;23;20008;-81
2022/11/17 03:16:25;;;;;;;20.05;11.35;;;8.40;99.90;;;;;;6259687;23;19996;-80
2022/11/17 03:19:02;;;;;;;16.05;9.70;;;8.40;99.90;;;;;;6257455;23;20008;-80
2022/11/17 03:21:47;;;;;;;17.23;10.52;;;8.40;99.90;;;;;;6258328;23;20122;-80
2022/11/17 03:24:28;;;;;;;17.00;10.55;;;8.40;99.90;;;;;;6259630;23;20020;-79
2022/11/17 03:26:59;;;;;;;15.55;10.10;;;8.50;99.90;;;;;;6258202;23;20015;-79
2022/11/17 03:29:29;;;;;;;15.45;10.65;;;8.50;99.90;;;;;;6257021;23;20075;-80
2022/11/17 03:31:59;;;;;;;16.92;10.30;;;8.60;99.90;;;;;;6258731;23;20015;-79
2022/11/17 03:34:28;;;;;;;15.43;9.93;;;8.60;99.90;;;;;;6263387;23;20007;-80
2022/11/17 03:36:59;;;;;;;14.88;9.45;;;8.60;99.90;;;;;;6230827;23;20015;-78
2022/11/17 03:39:36;;;;;;;17.35;10.30;;;8.70;99.90;;;;;;6258626;23;20004;-79
2022/11/17 03:42:10;;;;;;;14.65;9.23;;;8.70;99.90;;;;;;6261331;23;20008;-80
2022/11/17 03:44:39;;;;;;;16.85;9.20;;;8.70;99.90;;;;;;6258135;23;20008;-79
2022/11/17 03:47:06;;;;;;;14.65;8.70;;;8.60;99.90;;;;;;6258055;23;20434;-80
2022/11/17 03:49:50;;;;;;;14.90;9.05;;;8.70;99.90;;;;;;6256198;23;20051;-79
2022/11/17 03:52:16;;;;;;;17.85;8.60;;;8.80;99.90;;;;;;6259226;23;20030;-80
2022/11/17 03:54:42;;;;;;;13.48;8.43;;;8.90;99.90;;;;;;6262709;23;19996;-78
2022/11/17 03:57:19;;;;;;;15.27;8.38;;;8.90;99.90;;;;;;6261655;23;20070;-80
2022/11/17 03:59:56;;;;;;;13.75;7.93;;;9.00;99.90;;;;;;6230970;23;20004;-79
2022/11/17 04:02:24;;;;;;;14.73;8.27;;;9.00;99.90;;;;;;6229918;23;20008;-80
2022/11/17 04:05:05;;;;;;;11.82;7.78;;;9.00;99.90;;;;;;6257008;23;20004;-79
2022/11/17 04:07:40;;;;;;;13.48;7.90;;;9.00;99.90;;;;;;6231072;23;20008;-80
2022/11/17 04:10:08;;;;;;;11.55;7.13;;;9.00;99.90;;;;;;6261003;23;20062;-78
2022/11/17 04:18:04;;;;;;;17.35;8.20;;;9.00;99.90;;;;;;6261303;23;20075;-78
2022/11/17 04:20:34;;;;;;;16.02;9.13;;;9.00;99.90;;;;;;6207269;23;20004;-79
2022/11/17 04:23:08;;;;;;;13.93;7.50;;;9.00;99.90;;;;;;6257408;23;20060;-80
2022/11/17 04:28:35;;;;;;;14.98;7.32;;;9.00;99.90;;;;;;6257043;23;20012;-82
2022/11/17 04:31:10;;;;;;;13.23;8.63;;;9.00;99.90;;;;;;6258251;23;20068;-81
2022/11/17 04:33:38;;;;;;;14.48;8.35;;;9.00;99.90;;;;;;6258347;23;20008;-81
2022/11/17 04:36:06;;;;;;;12.43;7.60;;;8.90;99.90;;;;;;6231762;23;20004;-80
2022/11/17 04:38:32;;;;;;;13.40;7.22;;;8.90;99.90;;;;;;6257523;23;20000;-80
2022/11/17 04:43:49;;;;;;;11.00;6.68;;;9.00;99.90;;;;;;6256369;23;20008;-81
2022/11/17 04:46:16;;;;;;;12.98;8.68;;;9.00;99.90;;;;;;6230777;23;20005;-81
2022/11/17 04:48:42;;;;;;;13.13;7.93;;;9.00;99.90;;;;;;6256618;23;20072;-80
2022/11/17 04:51:09;;;;;;;13.38;8.27;;;9.00;99.90;;;;;;6256087;23;20322;-80
2022/11/17 04:53:34;;;;;;;16.40;8.95;;;9.00;99.90;;;;;;6255836;23;20027;-80
2022/11/17 04:56:01;;;;;;;20.25;8.98;;;9.00;99.90;;;;;;6263602;23;20019;-80
2022/11/17 04:58:27;;;;;;;17.80;10.00;;;9.00;99.90;;;;;;6234943;23;20004;-82
2022/11/17 05:00:53;;;;;;;19.20;10.63;;;9.00;99.90;;;;;;6233602;23;20001;-80
2022/11/17 05:03:19;;;;;;;17.90;10.00;;;9.00;99.90;;;;;;6258975;23;20023;-81
2022/11/17 05:05:48;;;;;;;15.70;9.65;;;9.00;99.90;;;;;;6259060;23;20000;-78
2022/11/17 05:08:14;;;;;;;20.50;9.40;;;9.00;99.90;;;;;;6259175;23;20034;-79
2022/11/17 05:13:25;;;;;;;18.63;11.00;;;8.90;99.90;;;;;;6259522;23;20007;-81
2022/11/17 05:18:42;;;;;;;18.90;10.55;;;8.80;99.90;;;;;;6267920;23;20000;-80
2022/11/17 05:21:10;;;;;;;30.50;11.35;;;8.70;99.90;;;;;;6240602;23;20000;-81
2022/11/17 05:23:55;;;;;;;18.88;9.95;;;8.70;99.90;;;;;;6263375;23;20008;-81
2022/11/17 05:26:24;;;;;;;19.05;10.77;;;8.70;99.90;;;;;;6234049;23;20056;-80
2022/11/17 05:28:50;;;;;;;19.95;10.18;;;8.60;99.90;;;;;;6261315;23;20000;-81
2022/11/17 05:31:16;;;;;;;22.30;10.68;;;8.50;99.90;;;;;;6234138;23;20056;-80
2022/11/17 05:33:42;;;;;;;19.52;9.88;;;8.50;99.90;;;;;;6261209;23;20004;-81
2022/11/17 05:36:09;;;;;;;20.92;10.02;;;8.40;99.90;;;;;;6237327;23;20039;-81
2022/11/17 05:38:35;;;;;;;20.52;10.50;;;8.40;99.90;;;;;;6261218;23;20004;-79
2022/11/17 05:41:01;;;;;;;18.20;10.15;;;8.40;99.90;;;;;;6261940;23;20016;-80
2022/11/17 05:43:27;;;;;;;17.15;10.68;;;8.40;99.90;;;;;;6264080;23;20007;-80
2022/11/17 05:45:53;;;;;;;14.73;9.70;;;8.40;99.90;;;;;;6235796;23;20023;-79
2022/11/17 05:48:19;;;;;;;20.45;11.40;;;8.40;99.90;;;;;;6235203;23;20007;-79
2022/11/17 05:50:45;;;;;;;17.08;10.10;;;8.40;99.90;;;;;;6258694;23;20008;-80
2022/11/17 05:53:11;;;;;;;22.52;12.57;;;8.40;99.90;;;;;;6259927;23;20087;-80
2022/11/17 05:55:37;;;;;;;16.25;10.77;;;8.40;99.90;;;;;;6233724;23;20012;-79
2022/11/17 05:58:17;;;;;;;23.00;11.65;;;8.40;99.90;;;;;;6233168;23;20000;-80
2022/11/17 06:00:43;;;;;;;28.45;11.68;;;8.40;99.90;;;;;;6232695;23;20004;-79
2022/11/17 06:03:19;;;;;;;17.08;11.15;;;8.40;99.90;;;;;;6232803;23;20050;-79
2022/11/17 06:05:46;;;;;;;18.88;11.30;;;8.40;99.90;;;;;;6257526;23;20043;-78
2022/11/17 06:08:11;;;;;;;20.08;11.70;;;8.30;99.90;;;;;;6266675;23;20024;-79
2022/11/17 06:10:37;;;;;;;19.58;10.55;;;8.40;99.90;;;;;;6256816;23;20011;-79
2022/11/17 06:13:03;;;;;;;18.70;11.23;;;8.30;99.90;;;;;;6262462;23;20082;-78
2022/11/17 06:15:29;;;;;;;20.20;10.38;;;8.40;99.90;;;;;;6267479;23;20024;-78
2022/11/17 06:18:13;;;;;;;23.33;11.35;;;8.40;99.90;;;;;;6271688;22;20004;-78
2022/11/17 06:20:44;;;;;;;26.67;10.77;;;8.50;99.90;;;;;;6273764;22;20012;-80
2022/11/17 06:23:11;;;;;;;22.17;10.57;;;8.50;99.90;;;;;;6273371;22;20020;-78
2022/11/17 06:25:38;;;;;;;17.02;9.75;;;8.50;99.90;;;;;;6246560;22;20008;-78
2022/11/17 06:28:08;;;;;;;17.85;9.50;;;8.50;99.90;;;;;;6247493;22;20011;-76
2022/11/17 06:30:36;;;;;;;19.00;10.45;;;8.40;99.90;;;;;;6239461;23;20004;-78
2022/11/17 06:33:02;;;;;;;19.10;10.50;;;8.40;99.90;;;;;;6236044;23;20072;-78
2022/11/17 06:35:32;;;;;;;22.65;10.77;;;8.40;99.90;;;;;;6263402;23;20381;-77
2022/11/17 06:37:59;;;;;;;18.50;10.77;;;8.40;99.90;;;;;;6241815;23;20056;-78
2022/11/17 06:40:25;;;;;;;18.02;9.70;;;8.40;99.90;;;;;;6238499;23;20007;-78
2022/11/17 06:43:07;;;;;;;19.08;10.23;;;8.40;99.90;;;;;;6258184;23;20012;-78
2022/11/17 06:45:40;;;;;;;28.50;10.60;;;8.50;99.90;;;;;;6256351;23;20011;-78
2022/11/17 06:48:08;;;;;;;16.77;9.60;;;8.60;99.90;;;;;;6255719;23;20015;-77
2022/11/17 06:50:34;;;;;;;16.15;10.00;;;8.60;99.90;;;;;;6258329;23;20008;-80
2022/11/17 06:53:02;;;;;;;15.98;9.75;;;8.70;99.90;;;;;;6231918;23;20004;-79
2022/11/17 06:55:29;;;;;;;21.67;10.27;;;8.70;99.90;;;;;;6234942;23;20024;-79
2022/11/17 06:58:05;;;;;;;23.40;9.82;;;8.80;99.90;;;;;;6230812;23;20012;-78
2022/11/17 07:00:32;;;;;;;19.15;9.32;;;8.80;99.90;;;;;;6256844;23;20015;-78
2022/11/17 07:03:03;;;;;;;17.63;9.50;;;8.80;99.90;;;;;;6253375;23;20019;-80
2022/11/17 07:05:30;;;;;;;16.35;9.65;;;8.90;99.90;;;;;;6251519;23;20406;-80
2022/11/17 07:08:00;;;;;;;26.58;9.85;;;9.00;99.90;;;;;;6250808;23;20004;-78
2022/11/17 07:10:27;;;;;;;16.08;9.32;;;9.10;99.90;;;;;;6202156;23;20003;-78
2022/11/17 07:12:53;;;;;;;17.15;10.13;;;9.10;99.90;;;;;;6232339;23;20001;-80
2022/11/17 07:15:19;;;;;;;17.30;9.35;;;9.00;99.90;;;;;;6262018;23;20011;-80
2022/11/17 07:17:45;;;;;;;20.63;10.45;;;9.00;99.90;;;;;;6236207;23;20004;-79
2022/11/17 07:20:12;;;;;;;19.15;9.38;;;9.00;99.90;;;;;;6264075;23;20058;-78
2022/11/17 07:22:38;;;;;;;18.58;10.35;;;9.10;99.90;;;;;;6239306;23;20008;-77
2022/11/17 07:25:04;;;;;;;23.15;11.32;;;9.10;99.90;;;;;;6267303;23;20008;-80
2022/11/17 07:27:30;;;;;;;16.90;10.18;;;9.20;99.90;;;;;;6263494;23;20011;-79
2022/11/17 07:29:56;;;;;;;18.73;10.07;;;9.30;99.90;;;;;;6261732;23;20005;-82
2022/11/17 07:32:22;;;;;;;20.20;9.60;;;9.40;99.90;;;;;;6208622;23;20012;-78
2022/11/17 07:34:49;;;;;;;26.50;9.73;;;9.40;99.90;;;;;;6232713;23;20027;-80
2022/11/17 07:37:15;;;;;;;20.65;9.63;;;9.40;99.90;;;;;;6229256;23;20070;-81
2022/11/17 07:39:40;;;;;;;15.88;9.10;;;9.40;99.90;;;;;;6228571;23;20012;-81
2022/11/17 07:42:06;;;;;;;16.38;8.80;;;9.40;99.90;;;;;;6228919;23;20008;-79
2022/11/17 07:44:33;;;;;;;16.90;9.02;;;9.30;99.90;;;;;;6260955;23;20008;-79
2022/11/17 07:46:59;;;;;;;19.00;9.73;;;9.10;99.90;;;;;;6207230;23;20011;-80
2022/11/17 07:49:26;;;;;;;16.92;9.90;;;9.00;99.90;;;;;;6252348;23;20039;-79
2022/11/17 07:51:52;;;;;;;20.60;10.80;;;9.10;99.90;;;;;;6258913;23;20000;-78
2022/11/17 07:54:18;;;;;;;20.17;10.00;;;9.10;99.90;;;;;;6258330;23;20004;-78
2022/11/17 07:56:44;;;;;;;17.33;10.55;;;9.20;99.90;;;;;;6258049;23;20073;-78
2022/11/17 07:59:10;;;;;;;17.75;9.95;;;9.30;99.90;;;;;;6256311;23;20000;-79
2022/11/17 08:01:35;;;;;;;18.80;11.05;;;9.40;99.90;;;;;;6230684;23;20004;-78
2022/11/17 08:04:02;;;;;;;21.20;11.10;;;9.50;99.90;;;;;;6258180;23;20039;-78
2022/11/17 08:06:27;;;;;;;21.85;9.98;;;9.50;99.90;;;;;;6227231;23;20342;-78
2022/11/17 08:08:54;;;;;;;14.15;8.73;;;9.60;99.90;;;;;;6256005;23;20011;-85
2022/11/17 08:11:20;;;;;;;15.55;8.90;;;9.70;99.90;;;;;;6256547;23;20000;-85
2022/11/17 08:13:48;;;;;;;19.75;8.65;;;10.10;99.90;;;;;;6233415;23;20004;-79
2022/11/17 08:16:14;;;;;;;15.23;7.68;;;10.30;99.90;;;;;;6259418;23;20015;-78
2022/11/17 08:18:41;;;;;;;12.70;7.78;;;10.40;99.90;;;;;;6260262;23;20067;-80
2022/11/17 08:21:15;;;;;;;14.65;7.90;;;10.80;99.90;;;;;;6263447;23;20339;-80
2022/11/17 08:23:41;;;;;;;15.52;7.38;;;11.60;99.90;;;;;;6263898;23;20008;-81
2022/11/17 08:26:09;;;;;;;11.43;7.15;;;12.80;99.90;;;;;;6266537;23;20015;-78
2022/11/17 08:28:36;;;;;;;13.00;7.68;;;13.30;99.90;;;;;;6263815;23;20012;-80
2022/11/17 08:31:03;;;;;;;11.25;6.78;;;13.30;99.90;;;;;;6258801;23;20008;-78
2022/11/17 08:33:29;;;;;;;12.80;8.10;;;13.70;99.90;;;;;;6227266;23;20134;-80
2022/11/17 08:36:00;;;;;;;10.30;6.80;;;14.20;99.90;;;;;;6201661;23;20000;-80
2022/11/17 08:38:27;;;;;;;12.20;6.97;;;14.80;99.90;;;;;;6253588;23;20148;-78
2022/11/17 08:40:57;;;;;;;11.50;7.20;;;15.10;99.90;;;;;;6223669;23;20067;-78
2022/11/17 08:43:23;;;;;;;14.48;7.35;;;14.70;99.90;;;;;;6201537;23;20012;-78
2022/11/17 08:45:50;;;;;;;12.15;7.30;;;14.10;99.90;;;;;;6253210;23;20003;-79
2022/11/17 08:48:16;;;;;;;15.18;7.63;;;13.70;99.90;;;;;;6253949;23;20427;-79
2022/11/17 08:50:41;;;;;;;11.93;7.35;;;13.50;99.90;;;;;;6259446;23;20079;-79
2022/11/17 08:53:15;;;;;;;13.80;7.95;;;13.30;99.90;;;;;;6240657;23;20023;-79
2022/11/17 08:55:41;;;;;;;18.90;8.65;;;13.20;99.90;;;;;;6262349;23;20018;-77
2022/11/17 08:58:07;;;;;;;18.05;9.35;;;12.90;99.90;;;;;;6235603;23;20004;-78
2022/11/17 09:00:35;;;;;;;14.15;8.35;;;12.70;99.90;;;;;;6264479;23;20470;-78
2022/11/17 09:03:05;;;;;;;16.48;9.80;;;12.50;99.90;;;;;;6232040;23;20138;-80
2022/11/17 09:05:34;;;;;;;17.38;10.50;;;12.20;99.90;;;;;;6239748;23;20070;-82
2022/11/17 09:08:00;;;;;;;20.52;10.15;;;11.90;99.90;;;;;;6242494;23;19992;-81
2022/11/17 09:10:26;;;;;;;18.25;10.90;;;11.90;99.90;;;;;;6264220;23;20004;-82
2022/11/17 09:12:55;;;;;;;19.20;11.05;;;11.90;99.90;;;;;;6262670;23;20002;-82
2022/11/17 09:15:21;;;;;;;18.38;10.40;;;11.80;99.90;;;;;;6263952;23;20036;-78
2022/11/17 09:17:47;;;;;;;18.02;11.07;;;11.70;99.90;;;;;;6270686;22;20023;-78
2022/11/17 09:20:15;;;;;;;23.30;12.10;;;11.60;99.90;;;;;;6266524;23;20003;-78
2022/11/17 09:22:41;;;;;;;21.17;11.75;;;11.50;99.90;;;;;;6265812;23;20008;-79
2022/11/17 09:25:07;;;;;;;16.95;10.70;;;11.50;99.90;;;;;;6260891;22;20026;-79
2022/11/17 09:27:33;;;;;;;25.90;13.38;;;11.40;99.90;;;;;;6250215;23;20008;-80
2022/11/17 09:30:02;;;;;;;27.90;13.80;;;11.40;99.90;;;;;;6251203;23;20019;-80
2022/11/17 09:32:28;;;;;;;26.35;14.27;;;11.50;99.90;;;;;;6249826;23;20019;-81
2022/11/17 09:34:54;;;;;;;32.30;15.27;;;11.50;99.90;;;;;;6222657;23;20008;-80
2022/11/17 09:37:21;;;;;;;31.75;16.70;;;11.40;99.90;;;;;;6249768;23;20159;-83
2022/11/17 09:39:47;;;;;;;30.80;16.55;;;11.40;99.90;;;;;;6250007;23;20342;-80
2022/11/17 09:42:17;;;;;;;39.25;17.30;;;11.50;99.90;;;;;;6250435;23;20011;-83
2022/11/17 09:44:51;;;;;;;35.72;17.23;;;11.50;99.90;;;;;;6250334;23;20070;-80
2022/11/17 09:49:54;;;;;;;36.58;16.10;;;11.30;99.90;;;;;;6263127;22;20012;-86
2022/11/17 09:53:03;;;;;;;31.70;15.20;;;11.00;99.90;;;;;;6237736;23;20054;-88
2022/11/17 09:55:43;;;;;;;;;;;10.80;99.90;;;;;;6238723;23;20012;-84
2022/11/17 09:58:18;;;;;;;30.00;14.95;;;10.70;99.90;;;;;;6240523;22;19910;-85
2022/11/17 10:00:51;;;;;;;29.90;14.70;;;10.70;99.90;;;;;;6271135;22;20007;-85
2022/11/17 10:03:27;;;;;;;32.40;16.10;;;10.60;99.90;;;;;;6268666;22;20004;-83
2022/11/17 10:05:54;;;;;;;28.60;14.55;;;10.60;99.90;;;;;;6295334;22;20150;-83
2022/11/17 10:08:39;;;;;;;25.92;14.55;;;10.50;99.90;;;;;;6264193;22;20026;-81
2022/11/17 10:11:30;;;;;;;;;;;10.30;99.90;;;;;;6292672;22;20010;-82
2022/11/17 10:14:16;;;;;;;26.45;13.85;;;10.20;99.90;;;;;;6292328;22;19909;-83
2022/11/17 10:16:57;;;;;;;29.52;14.25;;;10.10;99.90;;;;;;6291143;22;20027;-82
2022/11/17 10:19:26;;;;;;;33.15;14.48;;;10.10;99.90;;;;;;6265599;22;20034;-81
2022/11/17 10:22:09;;;;;;;29.42;14.63;;;10.10;99.90;;;;;;6265567;22;20059;-84
2022/11/17 10:24:42;;;;;;;26.02;14.07;;;10.10;99.90;;;;;;6265658;22;20003;-81
2022/11/17 10:27:29;;;;;;;30.42;14.73;;;10.10;99.90;;;;;;6269179;22;20012;-84
2022/11/17 10:30:10;;;;;;;22.85;13.43;;;10.20;99.90;;;;;;6296289;22;20004;-84
2022/11/17 10:32:46;;;;;;;28.90;14.48;;;10.20;99.90;;;;;;6298070;22;20011;-84
2022/11/17 10:35:22;;;;;;;30.58;15.00;;;10.20;99.90;;;;;;6274359;22;20011;-82
2022/11/17 10:38:15;;;;;;;27.67;13.23;;;10.10;99.90;;;;;;6274342;22;20078;-85
2022/11/17 10:40:41;;;;;;;32.85;14.60;;;10.20;99.90;;;;;;6276657;22;19999;-87
2022/11/17 10:43:13;;;;;;;26.73;13.10;;;10.10;99.90;;;;;;6303039;22;20044;-84
2022/11/17 10:45:43;;;;;;;25.83;13.77;;;10.10;99.90;;;;;;6304223;22;20018;-85
2022/11/17 10:48:17;;;;;;;29.48;13.43;;;10.10;99.90;;;;;;6251465;22;20004;-84
2022/11/17 10:51:20;;;;;;;23.05;13.02;;;10.10;99.90;;;;;;6303205;22;20053;-84
2022/11/17 10:54:18;;;;;;;22.13;12.18;;;10.00;99.90;;;;;;6275858;22;20031;-85
2022/11/17 10:56:48;;;;;;;23.17;12.90;;;9.90;99.90;;;;;;6250695;22;20008;-81
2022/11/17 10:59:28;;;;;;;24.48;12.65;;;9.80;99.90;;;;;;6301846;22;20022;-82
2022/11/17 11:01:54;;;;;;;22.42;12.23;;;9.90;99.90;;;;;;6300032;22;20018;-86
2022/11/17 11:04:32;;;;;;;23.67;11.98;;;9.80;99.90;;;;;;6274278;22;19988;-82
2022/11/17 11:07:12;;;;;;;21.95;11.48;;;9.80;99.90;;;;;;6251505;22;20014;-83
2022/11/17 11:10:04;;;;;;;22.35;12.75;;;9.90;99.90;;;;;;6271598;22;20017;-83
2022/11/17 11:13:02;;;;;;;23.33;12.68;;;9.90;99.90;;;;;;6219977;22;20023;-82
2022/11/17 11:15:32;;;;;;;21.40;11.55;;;9.90;99.90;;;;;;6247000;22;20140;-87
2022/11/17 11:17:58;;;;;;;20.70;11.30;;;9.90;99.90;;;;;;6268599;22;20007;-84
2022/11/17 11:20:46;;;;;;;22.58;12.57;;;9.90;99.90;;;;;;6296391;22;20027;-86
2022/11/17 11:23:37;;;;;;;29.83;10.65;;;9.90;99.90;;;;;;6265910;22;20023;-83
2022/11/17 11:26:11;;;;;;;22.50;11.40;;;9.90;99.90;;;;;;6265439;22;20011;-85
2022/11/17 11:28:58;;;;;;;23.48;10.93;;;9.90;99.90;;;;;;6267855;22;20015;-87
2022/11/17 11:31:44;;;;;;;22.92;10.60;;;9.80;99.90;;;;;;6295202;22;20030;-86
2022/11/17 11:34:50;;;;;;;22.33;10.80;;;9.90;99.90;;;;;;6299092;22;20010;-83
2022/11/17 11:37:16;;;;;;;20.27;9.75;;;9.80;99.90;;;;;;6226244;22;20226;-85
2022/11/17 11:40:09;;;;;;;19.17;10.55;;;9.80;99.90;;;;;;6299491;22;20030;-83
2022/11/17 11:43:17;;;;;;;19.17;9.32;;;9.70;99.90;;;;;;6272712;22;20464;-83
2022/11/17 11:46:16;;;;;;;17.42;8.75;;;9.60;99.90;;;;;;6270179;22;20007;-84
2022/11/17 11:48:41;;;;;;;18.33;10.35;;;9.70;99.90;;;;;;6270028;22;20035;-85
2022/11/17 11:51:07;;;;;;;19.83;9.15;;;9.70;99.90;;;;;;6267404;22;20011;-84
2022/11/17 11:53:39;;;;;;;16.15;10.23;;;9.70;99.90;;;;;;6266498;22;20020;-84
2022/11/17 11:56:27;;;;;;;16.65;9.75;;;9.70;99.90;;;;;;6296327;22;20090;-85
2022/11/17 11:58:59;;;;;;;18.58;9.80;;;9.70;99.90;;;;;;6241926;22;20098;-87
2022/11/17 12:01:27;;;;;;;16.83;9.13;;;9.80;99.90;;;;;;6240162;22;19992;-83
2022/11/17 12:04:24;;;;;;;13.85;9.32;;;9.80;99.90;;;;;;6244241;22;20007;-83
2022/11/17 12:07:14;;;;;;;14.13;9.05;;;9.80;99.90;;;;;;6296699;22;20003;-89
2022/11/17 12:10:15;;;;;;;16.80;9.75;;;9.80;99.90;;;;;;6265660;22;20011;-87
2022/11/17 12:12:44;;;;;;;15.35;10.30;;;9.70;99.90;;;;;;6285408;22;19999;-85
2022/11/17 12:15:11;;;;;;;15.55;10.10;;;9.60;99.90;;;;;;6271393;22;20011;-86
2022/11/17 12:17:58;;;;;;;16.33;9.90;;;9.60;99.90;;;;;;6298054;22;19995;-83
2022/11/17 12:20:48;;;;;;;18.60;10.20;;;9.60;99.90;;;;;;6298813;22;19992;-87
2022/11/17 12:23:35;;;;;;;16.17;9.38;;;9.50;99.90;;;;;;6301503;22;20007;-86
2022/11/17 12:26:02;;;;;;;12.93;8.93;;;9.50;99.90;;;;;;6301776;22;20033;-85
2022/11/17 12:28:39;;;;;;;16.77;9.63;;;9.50;99.90;;;;;;6273955;22;20380;-85
2022/11/17 12:31:08;;;;;;;14.38;9.45;;;9.50;99.90;;;;;;6247326;22;20012;-87
2022/11/17 12:33:52;;;;;;;16.88;9.80;;;9.60;99.90;;;;;;6300861;22;20011;-87
2022/11/17 12:36:26;;;;;;;16.17;9.70;;;9.60;99.90;;;;;;6274033;22;20000;-83
2022/11/17 12:38:53;;;;;;;;;;;9.70;99.90;;;;;;6252484;22;20010;-85
2022/11/17 12:41:47;;;;;;;15.73;9.13;;;9.70;99.90;;;;;;6302631;22;19899;-85
2022/11/17 12:44:32;;;;;;;15.00;9.38;;;9.70;99.90;;;;;;6274459;22;20008;-86
2022/11/17 12:47:25;;;;;;;16.55;9.45;;;9.70;99.90;;;;;;6278264;22;20008;-82
2022/11/17 12:49:57;;;;;;;17.70;9.38;;;9.60;99.90;;;;;;6304252;22;19996;-82
2022/11/17 12:53:02;;;;;;;17.45;10.38;;;9.60;99.90;;;;;;6304422;22;20040;-81
2022/11/17 12:55:31;;;;;;;18.10;9.38;;;9.50;99.90;;;;;;6219052;22;19996;-82
2022/11/17 12:58:35;;;;;;;16.70;9.18;;;9.50;99.90;;;;;;6277723;22;19994;-82
2022/11/17 13:01:21;;;;;;;16.02;10.00;;;9.50;99.90;;;;;;6276843;22;20003;-82
2022/11/17 13:03:54;;;;;;;17.52;10.05;;;9.50;99.90;;;;;;6303987;22;19991;-82
2022/11/17 13:06:20;;;;;;;18.10;9.75;;;9.50;99.90;;;;;;6303386;22;20016;-82
2022/11/17 13:08:56;;;;;;;18.85;10.43;;;9.50;99.90;;;;;;6303446;22;20006;-84
2022/11/17 13:11:22;;;;;;;16.60;9.73;;;9.50;99.90;;;;;;6275666;22;20010;-83
2022/11/17 13:13:48;;;;;;;18.90;8.95;;;9.60;99.90;;;;;;6275506;22;19998;-85
2022/11/17 13:16:20;;;;;;;18.73;10.27;;;9.60;99.90;;;;;;6249304;22;20008;-86
2022/11/17 13:18:48;;;;;;;21.27;11.82;;;9.60;99.90;;;;;;6296608;22;20003;-87
2022/11/17 13:21:29;;;;;;;16.23;10.13;;;9.60;99.90;;;;;;6271375;22;19999;-86
2022/11/17 13:23:58;;;;;;;23.17;12.23;;;9.70;99.90;;;;;;6301027;22;20039;-86
2022/11/17 13:26:36;;;;;;;20.33;12.40;;;9.70;99.90;;;;;;6302759;22;20021;-84
2022/11/17 13:29:02;;;;;;;24.73;11.63;;;9.70;99.90;;;;;;6302747;22;19992;-84
2022/11/17 13:31:28;;;;;;;21.17;11.98;;;9.60;99.90;;;;;;6278022;22;20071;-87
2022/11/17 13:34:20;;;;;;;22.15;12.73;;;9.50;99.90;;;;;;6303957;22;20004;-85
2022/11/17 13:36:57;;;;;;;21.50;12.95;;;9.50;99.90;;;;;;6271868;22;20015;-84